aviador You're here:

KBVE Decoded Metar

BOOTHVILLE in LA, USA
Report Time2017-11-21 05:51:00
UTC Time2017-11-21 06:10:51
Flight Rules vfr VFR
Wind060° at 04 kt
W.Rank060° ranks 11
Current wind is below 060° avg. (6.2)
Visibility9999 m
Phenomena:N/A
Clouds:N/A
Expected CloudBase > 1,200 ft AGL from Temp-Dew spread
CeilingNone
Temp17°C (ISA +2)
Dew Point14°C (83% RH)
AAT16.9°C
QNH1018 hPa
Density Alt282 ft
Elevation3 ft
Report Wrong Elevation
Raw Report
KBVE 210551Z AUTO 06004KT 10SM CLR 17/14 A3005 RMK AO2 SLP176
T01670139 10172 20156 401830133 58026=

Extra information for KBVE:More info

Metar Taf Metar & Taf Last 4 Metars F.Rules Stats Wind Profile Meteogram Temp Stats Airport Information Weather charts Add Link Nearby VenuesMetar ALERT Operation Metar Decoded Social comments

AIRNAV info for KBVE